EDT,Max TemperatureF,Mean TemperatureF,Min TemperatureF,Max Dew PointF,MeanDew PointF,Min DewpointF,Max Humidity, Mean Humidity, Min Humidity, Max Sea Level PressureIn, Mean Sea Level PressureIn, Min Sea Level PressureIn, Max VisibilityMiles, Mean VisibilityMiles, Min VisibilityMiles, Max Wind SpeedMPH, Mean Wind SpeedMPH, Max Gust SpeedMPH,PrecipitationIn, CloudCover, Events, WindDirDegrees
2013-8-1,82,73,64,70,67,64,100,85,58,30.06,30.03,30.00,10,8,2,12,1,,0.00,4,,319
2013-8-2,82,72,62,70,62,54,100,80,37,30.12,30.09,30.05,10,6,0,4,0,,0.00,2,Fog,50
2013-8-3,82,72,62,72,66,63,100,83,58,30.11,30.08,30.04,10,9,0,10,1,,0.00,2,Fog,247
2013-8-4,82,72,62,72,63,55,100,76,39,30.14,30.10,30.06,10,8,0,7,1,,0.00,2,Fog-Rain,312
2013-8-5,84,70,57,66,61,57,100,76,42,30.15,30.10,30.04,10,10,3,7,1,,0.00,1,,279
2013-8-6,82,72,62,72,66,63,100,82,51,30.08,30.05,30.01,10,10,6,7,1,,0.00,5,,187
2013-8-7,82,75,68,73,71,68,100,89,66,30.10,30.05,30.02,10,9,3,9,2,,0.05,4,Rain,212
2013-8-8,80,76,71,73,72,72,100,94,74,30.12,30.07,30.04,10,9,1,12,1,,0.25,5,Rain,231
2013-8-9,86,77,68,75,72,68,100,90,62,30.13,30.09,30.05,10,8,1,10,1,,0.02,3,Rain-Thunderstorm,227
2013-8-10,82,75,68,75,72,68,100,92,69,30.18,30.15,30.12,10,7,2,8,0,,0.21,4,Rain-Thunderstorm,241
2013-8-11,82,75,68,75,71,68,100,93,70,30.22,30.17,30.12,10,6,0,8,1,,0.26,4,Fog-Rain-Thunderstorm,233
2013-8-12,82,76,71,75,72,70,100,95,70,30.17,30.11,30.04,10,6,0,8,1,,0.96,5,Fog-Rain-Thunderstorm,268
2013-8-13,80,74,68,72,69,64,100,89,65,30.05,29.98,29.94,10,9,1,8,1,,0.75,3,Rain-Thunderstorm,285
2013-8-14,75,65,55,64,58,54,100,80,47,30.16,30.09,30.01,10,8,0,8,1,,0.00,0,Fog,356
2013-8-15,78,64,51,66,58,52,100,81,50,30.17,30.13,30.08,10,10,6,7,0,,0.00,0,,79
2013-8-16,80,68,57,66,60,57,100,80,45,30.17,30.14,30.10,10,9,5,8,0,,0.00,0,,81
2013-8-17,73,66,59,66,60,55,100,81,57,30.23,30.18,30.15,10,10,2,9,1,,0.18,1,Rain,72
2013-8-18,77,70,64,68,65,63,100,89,61,30.25,30.20,30.16,10,10,2,14,1,18,0.12,6,Rain,246
2013-8-19,82,74,66,70,67,64,100,86,58,30.22,30.18,30.13,10,10,10,7,0,,0.00,3,,211
2013-8-20,84,74,64,72,67,64,100,86,51,30.25,30.19,30.15,10,8,0,4,0,,0.00,4,Fog,100
2013-8-21,80,73,66,72,68,66,100,90,65,30.28,30.23,30.19,10,8,0,8,1,,0.00,2,Fog-Rain,221
2013-8-22,84,75,66,73,68,66,100,91,58,30.24,30.19,30.11,10,6,0,13,1,29,0.12,4,Fog-Rain,239
2013-8-23,84,74,64,72,66,64,100,87,55,30.17,30.12,30.07,10,6,0,7,0,,0.00,2,Fog,335
2013-8-24,84,72,59,70,61,54,100,78,35,30.33,30.25,30.17,10,7,0,9,2,,0.00,0,Fog,83
2013-8-25,82,68,53,64,58,54,100,75,42,30.43,30.37,30.32,10,10,9,6,0,,0.00,0,,78
2013-8-26,82,68,53,70,61,54,100,82,51,30.38,30.30,30.20,10,10,2,4,0,,0.00,0,,230
2013-8-27,84,73,62,72,66,63,100,87,55,30.22,30.17,30.10,10,5,0,5,0,,0.00,3,Fog,310
2013-8-28,87,76,66,72,68,66,100,81,49,30.13,30.08,30.03,10,7,0,8,2,,0.00,2,Fog,259
2013-8-29,89,78,68,72,70,68,100,79,49,30.08,30.04,30.01,10,10,5,7,2,,0.00,2,,293
2013-8-30,87,74,62,73,68,63,100,81,49,30.09,30.03,29.97,10,7,0,8,1,,0.00,1,Fog,270
2013-8-31,87,78,68,73,71,68,100,87,58,30.03,29.98,29.91,10,7,1,10,2,,0.07,4,Rain-Thunderstorm,234